createdAt,value
2018-05-31T00:00:51.936Z,100997
2018-05-31T00:03:20.869Z,100992
2018-05-31T00:05:49.781Z,100993
2018-05-31T00:08:18.800Z,100995
2018-05-31T00:10:47.763Z,100990
2018-05-31T00:13:16.039Z,100990
2018-05-31T00:15:44.226Z,100986
2018-05-31T00:18:13.146Z,100982
2018-05-31T00:20:41.328Z,100985
2018-05-31T00:23:09.583Z,100982
2018-05-31T00:25:38.559Z,100989
2018-05-31T00:28:07.471Z,100985
2018-05-31T00:30:35.660Z,100982
2018-05-31T00:33:03.838Z,100974
2018-05-31T00:35:32.041Z,100984
2018-05-31T00:38:00.333Z,100978
2018-05-31T00:40:29.335Z,100980
2018-05-31T00:42:57.499Z,100979
2018-05-31T00:45:25.674Z,100969
2018-05-31T00:47:53.877Z,100970
2018-05-31T00:50:22.056Z,100962
2018-05-31T00:52:50.214Z,100958
2018-05-31T00:58:27.162Z,100952
2018-05-31T01:00:55.323Z,100950
2018-05-31T01:03:23.632Z,100944
2018-05-31T01:05:51.905Z,100949
2018-05-31T01:08:20.183Z,100944
2018-05-31T01:10:48.429Z,100944
2018-05-31T01:13:16.573Z,100938
2018-05-31T01:15:44.786Z,100933
2018-05-31T01:18:12.991Z,100942
2018-05-31T01:20:41.955Z,100932
2018-05-31T01:23:10.200Z,100933
2018-05-31T01:25:38.335Z,100937
2018-05-31T01:28:07.252Z,100929
2018-05-31T01:30:35.456Z,100933
2018-05-31T01:33:03.633Z,100928
2018-05-31T01:35:31.846Z,100935
2018-05-31T01:38:18.629Z,100931
2018-05-31T01:40:47.715Z,100932
2018-05-31T01:43:15.891Z,100929
2018-05-31T01:45:44.291Z,100924
2018-05-31T01:48:12.435Z,100928
2018-05-31T01:50:40.659Z,100909
2018-05-31T01:53:08.990Z,100911
2018-05-31T01:55:37.147Z,100912
2018-05-31T01:58:05.418Z,100918
2018-05-31T02:00:34.227Z,100911
2018-05-31T02:03:02.397Z,100908
2018-05-31T02:05:30.550Z,100906
2018-05-31T02:07:58.729Z,100910
2018-05-31T02:10:26.896Z,100914
2018-05-31T02:12:55.036Z,100909
2018-05-31T02:15:23.971Z,100923
2018-05-31T02:17:52.160Z,100919
2018-05-31T02:20:20.418Z,100910
2018-05-31T02:22:48.625Z,100912
2018-05-31T02:25:16.887Z,100923
2018-05-31T02:27:45.044Z,100928
2018-05-31T02:30:13.211Z,100921
2018-05-31T02:32:41.358Z,100920
2018-05-31T02:35:09.577Z,100920
2018-05-31T02:37:38.385Z,100919
2018-05-31T02:40:07.460Z,100925
2018-05-31T02:42:35.623Z,100930
2018-05-31T02:45:03.796Z,100937
2018-05-31T02:47:31.978Z,100930
2018-05-31T02:50:00.190Z,100928
2018-05-31T02:52:28.346Z,100931
2018-05-31T02:54:56.573Z,100928
2018-05-31T02:57:24.813Z,100924
2018-05-31T02:59:53.025Z,100925
2018-05-31T03:02:21.248Z,100930
2018-05-31T03:04:49.421Z,100934
2018-05-31T03:07:18.366Z,100934
2018-05-31T03:09:46.580Z,100933
2018-05-31T03:12:15.529Z,100932
2018-05-31T03:14:43.708Z,100935
2018-05-31T03:17:11.960Z,100933
2018-05-31T03:19:40.135Z,100932
2018-05-31T03:22:08.363Z,100936
2018-05-31T03:24:37.337Z,100944
2018-05-31T03:27:05.573Z,100943
2018-05-31T03:29:33.849Z,100943
2018-05-31T03:32:02.121Z,100941
2018-05-31T03:34:30.284Z,100946
2018-05-31T03:36:58.442Z,100940
2018-05-31T03:39:26.689Z,100943
2018-05-31T03:41:55.654Z,100940
2018-05-31T03:44:23.828Z,100948
2018-05-31T03:46:51.975Z,100944
2018-05-31T03:49:20.159Z,100943
2018-05-31T03:51:48.361Z,100929
2018-05-31T03:54:16.540Z,100936
2018-05-31T03:56:44.704Z,100930
2018-05-31T03:59:12.878Z,100937
2018-05-31T04:01:41.070Z,100932
2018-05-31T04:04:10.050Z,100931
2018-05-31T04:06:38.323Z,100935
2018-05-31T04:09:06.473Z,100925
2018-05-31T04:11:34.766Z,100924
2018-05-31T04:14:02.965Z,100926
2018-05-31T04:16:31.924Z,100925
2018-05-31T04:19:00.099Z,100932
2018-05-31T04:21:28.292Z,100939
2018-05-31T04:23:56.622Z,100937
2018-05-31T04:26:24.776Z,100934
2018-05-31T04:28:52.938Z,100932
2018-05-31T04:31:21.155Z,100936
2018-05-31T04:33:49.315Z,100936
2018-05-31T04:36:17.462Z,100945
2018-05-31T04:38:45.665Z,100938
2018-05-31T04:41:13.818Z,100944
2018-05-31T04:43:42.046Z,100944
2018-05-31T04:46:10.323Z,100943
2018-05-31T04:48:38.507Z,100949
2018-05-31T04:51:07.451Z,100949
2018-05-31T04:53:35.690Z,100947
2018-05-31T04:56:04.665Z,100946
2018-05-31T04:58:33.609Z,100948
2018-05-31T05:01:01.888Z,100946
2018-05-31T05:03:30.247Z,100943
2018-05-31T05:05:58.444Z,100944
2018-05-31T05:08:26.621Z,100946
2018-05-31T05:10:54.918Z,100946
2018-05-31T05:13:23.092Z,100953
2018-05-31T05:15:51.233Z,100954
2018-05-31T05:18:19.426Z,100961
2018-05-31T05:20:47.631Z,100963
2018-05-31T05:23:16.554Z,100957
2018-05-31T05:25:44.745Z,100956
2018-05-31T05:28:12.970Z,100950
2018-05-31T05:30:41.893Z,100954
2018-05-31T05:33:10.113Z,100949
2018-05-31T05:35:38.258Z,100959
2018-05-31T05:38:06.467Z,100961
2018-05-31T05:40:35.401Z,100964
2018-05-31T05:43:03.597Z,100965
2018-05-31T05:45:31.758Z,100967
2018-05-31T05:47:59.966Z,100967
2018-05-31T05:50:28.160Z,100956
2018-05-31T05:52:57.094Z,100961
2018-05-31T05:55:25.329Z,100963
2018-05-31T05:57:54.244Z,100962
2018-05-31T06:00:22.401Z,100968
2018-05-31T06:02:51.377Z,100973
2018-05-31T06:05:20.322Z,100974
2018-05-31T06:07:48.490Z,100969
2018-05-31T06:10:16.728Z,100975
2018-05-31T06:12:44.833Z,100975
2018-05-31T06:15:13.034Z,100971
2018-05-31T06:17:41.201Z,100978
2018-05-31T06:20:09.414Z,100979
2018-05-31T06:22:38.351Z,100977
2018-05-31T06:25:06.543Z,100975
2018-05-31T06:27:34.698Z,100979
2018-05-31T06:30:02.908Z,100982
2018-05-31T06:32:31.830Z,100976
2018-05-31T06:35:00.043Z,100977
2018-05-31T06:37:28.297Z,100978
2018-05-31T06:39:57.184Z,100980
2018-05-31T06:42:25.401Z,100972
2018-05-31T06:44:53.610Z,100972
2018-05-31T06:47:22.822Z,100972
2018-05-31T06:49:50.987Z,100975
2018-05-31T06:52:19.196Z,100979
2018-05-31T06:54:47.481Z,100984
2018-05-31T06:57:15.626Z,100990
2018-05-31T06:59:43.813Z,100985
2018-05-31T07:02:12.052Z,100983
2018-05-31T07:04:41.078Z,100985
2018-05-31T07:07:09.217Z,100987
2018-05-31T07:09:38.583Z,100990
2018-05-31T07:12:07.552Z,100996
2018-05-31T07:14:35.689Z,100995
2018-05-31T07:17:04.605Z,100989
2018-05-31T07:19:32.729Z,100993
2018-05-31T07:22:00.891Z,100991
2018-05-31T07:24:29.095Z,100986
2018-05-31T07:26:58.034Z,100986
2018-05-31T07:29:26.222Z,100990
2018-05-31T07:31:54.416Z,100991
2018-05-31T07:34:23.318Z,100989
2018-05-31T07:36:52.241Z,100987
2018-05-31T07:39:20.416Z,100992
2018-05-31T07:41:48.584Z,100989
2018-05-31T07:44:16.779Z,100992
2018-05-31T07:46:45.211Z,100986
2018-05-31T07:49:13.438Z,100995
2018-05-31T07:51:41.570Z,100998
2018-05-31T07:54:09.766Z,100996
2018-05-31T07:56:37.931Z,100998
2018-05-31T07:59:06.135Z,101009
2018-05-31T08:01:34.311Z,101002
2018-05-31T08:04:03.258Z,101003
2018-05-31T08:06:31.421Z,101003
2018-05-31T08:08:59.618Z,100999
2018-05-31T08:11:27.786Z,101002
2018-05-31T08:13:55.968Z,101000
2018-05-31T08:16:24.163Z,101016
2018-05-31T08:18:52.331Z,101009
2018-05-31T08:21:20.487Z,101012
2018-05-31T08:23:48.673Z,101005
2018-05-31T08:26:16.962Z,101012
2018-05-31T08:28:45.154Z,101008
2018-05-31T08:31:13.376Z,101011
2018-05-31T08:33:41.547Z,101017
2018-05-31T08:36:09.844Z,101013
2018-05-31T08:38:37.983Z,101006
2018-05-31T08:41:06.160Z,101001
2018-05-31T08:43:34.321Z,100997
2018-05-31T08:46:02.554Z,101007
2018-05-31T08:48:32.225Z,101005
2018-05-31T08:51:00.460Z,101005
2018-05-31T08:53:29.382Z,101004
2018-05-31T08:55:57.570Z,100993
2018-05-31T08:58:25.747Z,101002
2018-05-31T09:00:54.532Z,101004
2018-05-31T09:03:22.698Z,101008
2018-05-31T09:05:50.864Z,101006
2018-05-31T09:08:19.021Z,101002
2018-05-31T09:10:47.162Z,101004
2018-05-31T09:13:15.367Z,101000
2018-05-31T09:15:43.505Z,100997
2018-05-31T09:18:11.638Z,100994
2018-05-31T09:20:39.786Z,100989
2018-05-31T09:23:07.939Z,100982
2018-05-31T09:25:36.882Z,100984
2018-05-31T09:28:05.026Z,100984
2018-05-31T09:30:33.213Z,100982
2018-05-31T09:33:01.342Z,100986
2018-05-31T09:35:30.299Z,100980
2018-05-31T09:37:58.495Z,100985
2018-05-31T09:40:26.630Z,100980
2018-05-31T09:42:55.374Z,100979
2018-05-31T09:45:24.429Z,100983
2018-05-31T09:47:52.638Z,100979
2018-05-31T09:50:21.553Z,100967
2018-05-31T09:52:49.853Z,100968
2018-05-31T09:55:18.031Z,100968
2018-05-31T09:57:46.892Z,100973
2018-05-31T10:00:16.861Z,100968
2018-05-31T10:02:45.052Z,100975
2018-05-31T10:05:13.993Z,100971
2018-05-31T10:07:42.125Z,100975
2018-05-31T10:10:11.149Z,100965
2018-05-31T10:12:39.297Z,100970
2018-05-31T10:15:07.487Z,100971
2018-05-31T10:17:35.662Z,100956
2018-05-31T10:20:03.879Z,100953
2018-05-31T10:22:32.048Z,100957
2018-05-31T10:25:00.358Z,100955
2018-05-31T10:27:28.517Z,100962
2018-05-31T10:29:57.465Z,100963
2018-05-31T10:32:25.709Z,100967
2018-05-31T10:34:53.898Z,100963
2018-05-31T10:37:22.053Z,100953
2018-05-31T10:39:50.202Z,100946
2018-05-31T10:42:19.123Z,100949
2018-05-31T10:44:47.286Z,100931
2018-05-31T10:47:15.441Z,100938
2018-05-31T10:49:44.408Z,100943
2018-05-31T10:52:12.575Z,100935
2018-05-31T10:54:40.754Z,100950
2018-05-31T10:57:08.882Z,100939
2018-05-31T10:59:37.082Z,100941
2018-05-31T11:02:05.242Z,100934
2018-05-31T11:04:33.430Z,100933
2018-05-31T11:07:02.187Z,100940
2018-05-31T11:09:30.670Z,100931
2018-05-31T11:11:58.885Z,100925
2018-05-31T11:14:27.072Z,100936
2018-05-31T11:16:55.982Z,100936
2018-05-31T11:19:24.929Z,100935
2018-05-31T11:21:53.041Z,100938
2018-05-31T11:24:22.038Z,100931
2018-05-31T11:26:51.016Z,100926
2018-05-31T11:29:19.999Z,100938
2018-05-31T11:31:48.115Z,100927
2018-05-31T11:34:16.304Z,100932
2018-05-31T11:36:44.443Z,100920
2018-05-31T11:39:12.584Z,100925
2018-05-31T11:41:40.826Z,100934
2018-05-31T11:44:08.967Z,100928
2018-05-31T11:46:37.100Z,100927
2018-05-31T11:49:05.756Z,100927
2018-05-31T11:51:34.646Z,100921
2018-05-31T11:54:02.841Z,100923
2018-05-31T11:56:30.975Z,100921
2018-05-31T11:58:59.162Z,100919
2018-05-31T12:01:27.297Z,100900
2018-05-31T12:03:55.438Z,100907
2018-05-31T12:06:23.619Z,100902
2018-05-31T12:08:51.853Z,100898
2018-05-31T12:11:19.990Z,100909
2018-05-31T12:13:48.125Z,100903
2018-05-31T12:16:16.283Z,100907
2018-05-31T12:18:44.442Z,100899
2018-05-31T12:24:10.178Z,100897
2018-05-31T12:26:38.350Z,100893
2018-05-31T12:29:06.515Z,100895
2018-05-31T12:31:34.665Z,100891
2018-05-31T12:34:02.785Z,100900
2018-05-31T12:36:31.000Z,100893
2018-05-31T12:38:59.904Z,100893
2018-05-31T12:41:28.037Z,100888
2018-05-31T12:43:56.483Z,100883
2018-05-31T12:46:25.609Z,100891
2018-05-31T12:48:53.850Z,100876
2018-05-31T12:51:22.026Z,100877
2018-05-31T12:53:50.186Z,100865
2018-05-31T12:56:18.337Z,100870
2018-05-31T12:58:46.530Z,100880
2018-05-31T13:01:14.713Z,100872
2018-05-31T13:03:42.998Z,100882
2018-05-31T13:06:11.140Z,100879
2018-05-31T13:08:39.291Z,100879
2018-05-31T13:11:08.219Z,100880
2018-05-31T13:13:36.405Z,100885
2018-05-31T13:16:04.660Z,100891
2018-05-31T13:18:32.799Z,100883
2018-05-31T13:21:11.644Z,100882
2018-05-31T13:23:39.803Z,100870
2018-05-31T13:26:07.985Z,100862
2018-05-31T13:28:36.203Z,100864
2018-05-31T13:31:04.408Z,100869
2018-05-31T13:33:33.353Z,100884
2018-05-31T13:36:02.353Z,100872
2018-05-31T13:38:30.584Z,100861
2018-05-31T13:40:59.839Z,100856
2018-05-31T13:43:41.019Z,100859
2018-05-31T13:46:09.231Z,100848
2018-05-31T13:48:38.895Z,100853
2018-05-31T13:51:07.048Z,100853
2018-05-31T13:53:35.258Z,100849
2018-05-31T13:56:03.791Z,100850
2018-05-31T13:58:31.968Z,100850
2018-05-31T14:01:00.156Z,100844
2018-05-31T14:03:30.259Z,100844
2018-05-31T14:05:58.460Z,100845
2018-05-31T14:08:26.635Z,100838
2018-05-31T14:10:54.845Z,100845
2018-05-31T14:13:23.779Z,100849
2018-05-31T14:15:51.929Z,100845
2018-05-31T14:18:20.771Z,100844
2018-05-31T14:20:49.090Z,100843
2018-05-31T14:23:17.219Z,100835
2018-05-31T14:25:45.360Z,100845
2018-05-31T14:28:13.500Z,100823
2018-05-31T14:30:41.678Z,100813
2018-05-31T14:33:09.800Z,100817
2018-05-31T14:35:37.964Z,100822
2018-05-31T14:38:06.143Z,100822
2018-05-31T14:40:34.314Z,100823
2018-05-31T14:43:02.499Z,100824
2018-05-31T14:45:30.837Z,100829
2018-05-31T14:47:59.003Z,100816
2018-05-31T14:50:27.198Z,100809
2018-05-31T14:52:55.547Z,100821
2018-05-31T14:55:23.755Z,100836
2018-05-31T14:57:51.911Z,100825
2018-05-31T15:00:20.076Z,100826
2018-05-31T15:02:48.246Z,100837
2018-05-31T15:05:16.398Z,100818
2018-05-31T15:07:44.576Z,100813
2018-05-31T15:10:12.758Z,100818
2018-05-31T15:12:40.981Z,100817
2018-05-31T15:15:09.105Z,100823
2018-05-31T15:17:37.286Z,100826
2018-05-31T15:20:05.420Z,100823
2018-05-31T15:22:34.449Z,100822
2018-05-31T15:25:02.591Z,100817
2018-05-31T15:27:31.531Z,100805
2018-05-31T15:29:59.690Z,100805
2018-05-31T15:38:22.256Z,100819
2018-05-31T15:40:50.419Z,100824
2018-05-31T15:43:18.609Z,100820
2018-05-31T15:45:47.502Z,100814
2018-05-31T15:48:15.666Z,100812
2018-05-31T15:50:43.847Z,100814
2018-05-31T15:53:11.993Z,100810
2018-05-31T15:55:40.189Z,100817
2018-05-31T15:58:08.345Z,100813
2018-05-31T16:00:36.555Z,100819
2018-05-31T16:03:04.665Z,100819
2018-05-31T16:05:33.610Z,100818
2018-05-31T16:08:02.602Z,100817
2018-05-31T16:10:30.831Z,100812
2018-05-31T16:12:59.889Z,100815
2018-05-31T16:15:37.965Z,100790
2018-05-31T16:18:06.125Z,100802
2018-05-31T16:20:34.249Z,100804
2018-05-31T16:23:02.440Z,100799
2018-05-31T16:25:31.341Z,100797
2018-05-31T16:28:00.248Z,100796
2018-05-31T16:30:28.555Z,100796
2018-05-31T16:32:56.700Z,100796
2018-05-31T16:35:25.033Z,100797
2018-05-31T16:37:53.312Z,100798
2018-05-31T16:40:22.255Z,100795
2018-05-31T16:42:50.429Z,100789
2018-05-31T16:45:18.641Z,100797
2018-05-31T16:47:46.879Z,100799
2018-05-31T16:50:15.187Z,100793
2018-05-31T16:52:43.903Z,100791
2018-05-31T16:55:12.845Z,100791
2018-05-31T16:57:41.008Z,100788
2018-05-31T17:00:09.154Z,100785
2018-05-31T17:02:37.293Z,100785
2018-05-31T17:05:05.451Z,100784
2018-05-31T17:07:33.580Z,100781
2018-05-31T17:10:01.811Z,100782
2018-05-31T17:12:30.778Z,100791
2018-05-31T17:14:59.010Z,100787
2018-05-31T17:17:27.162Z,100786
2018-05-31T17:19:56.082Z,100784
2018-05-31T17:22:24.248Z,100788
2018-05-31T17:24:52.398Z,100789
2018-05-31T17:27:21.358Z,100790
2018-05-31T17:29:49.534Z,100790
2018-05-31T17:32:17.727Z,100796
2018-05-31T17:34:45.866Z,100794
2018-05-31T17:37:14.005Z,100793
2018-05-31T17:39:42.208Z,100789
2018-05-31T17:42:10.396Z,100788
2018-05-31T17:44:38.525Z,100793
2018-05-31T17:47:06.687Z,100789
2018-05-31T17:49:34.875Z,100789
2018-05-31T17:52:03.034Z,100789
2018-05-31T17:54:31.254Z,100795
2018-05-31T17:56:59.392Z,100793
2018-05-31T17:59:27.830Z,100793
2018-05-31T18:01:57.289Z,100796
2018-05-31T18:04:25.441Z,100797
2018-05-31T18:06:53.622Z,100797
2018-05-31T18:09:21.829Z,100789
2018-05-31T18:11:50.001Z,100791
2018-05-31T18:14:18.226Z,100786
2018-05-31T18:16:47.115Z,100795
2018-05-31T18:19:15.344Z,100792
2018-05-31T18:21:43.698Z,100795
2018-05-31T18:24:12.230Z,100788
2018-05-31T18:26:41.157Z,100796
2018-05-31T18:29:09.806Z,100796
2018-05-31T18:31:38.709Z,100796
2018-05-31T18:34:07.639Z,100797
2018-05-31T18:36:35.798Z,100805
2018-05-31T18:39:03.924Z,100804
2018-05-31T18:41:32.896Z,100803
2018-05-31T18:44:01.090Z,100803
2018-05-31T18:46:30.119Z,100808
2018-05-31T18:48:58.339Z,100804
2018-05-31T18:51:26.591Z,100800
2018-05-31T18:53:55.210Z,100807
2018-05-31T18:56:23.386Z,100806
2018-05-31T18:58:52.335Z,100809
2018-05-31T19:01:20.483Z,100815
2018-05-31T19:03:48.654Z,100815
2018-05-31T19:06:16.789Z,100824
2018-05-31T19:08:45.003Z,100818
2018-05-31T19:11:13.192Z,100821
2018-05-31T19:13:46.972Z,100827
2018-05-31T19:16:15.187Z,100831
2018-05-31T19:18:48.838Z,100836
2018-05-31T19:21:16.995Z,100838
2018-05-31T19:23:49.474Z,100836
2018-05-31T19:26:17.619Z,100843
2018-05-31T19:28:45.919Z,100844
2018-05-31T19:31:32.689Z,100847
2018-05-31T19:34:00.841Z,100854
2018-05-31T19:36:34.654Z,100853
2018-05-31T19:39:04.206Z,100852
2018-05-31T19:41:32.632Z,100858
2018-05-31T19:44:06.502Z,100855
2018-05-31T19:46:35.491Z,100857
2018-05-31T19:49:04.442Z,100866
2018-05-31T19:51:38.216Z,100867
2018-05-31T19:54:06.397Z,100865
2018-05-31T19:56:34.529Z,100870
2018-05-31T19:59:09.319Z,100867
2018-05-31T20:01:43.071Z,100858
2018-05-31T20:04:12.020Z,100869
2018-05-31T20:06:40.173Z,100864
2018-05-31T20:09:08.345Z,100860
2018-05-31T20:11:36.673Z,100875
2018-05-31T20:14:04.903Z,100867
2018-05-31T20:16:33.569Z,100861
2018-05-31T20:19:01.870Z,100865
2018-05-31T20:21:30.040Z,100867
2018-05-31T20:23:58.199Z,100856
2018-05-31T20:26:26.480Z,100863
2018-05-31T20:29:05.308Z,100861
2018-05-31T20:31:33.446Z,100866
2018-05-31T20:34:01.633Z,100863
2018-05-31T20:36:29.830Z,100861
2018-05-31T20:38:58.137Z,100858
2018-05-31T20:41:26.346Z,100865
2018-05-31T20:43:54.471Z,100863
2018-05-31T20:46:22.679Z,100865
2018-05-31T20:48:50.836Z,100865
2018-05-31T20:51:19.804Z,100865
2018-05-31T20:53:47.966Z,100870
2018-05-31T20:56:16.156Z,100866
2018-05-31T20:58:44.304Z,100870
2018-05-31T21:01:12.440Z,100871
2018-05-31T21:03:40.605Z,100868
2018-05-31T21:06:09.918Z,100870
2018-05-31T21:08:38.059Z,100870
2018-05-31T21:11:06.312Z,100867
2018-05-31T21:13:34.531Z,100872
2018-05-31T21:16:02.712Z,100871
2018-05-31T21:18:30.861Z,100866
2018-05-31T21:20:59.770Z,100869
2018-05-31T21:23:27.957Z,100861
2018-05-31T21:25:56.141Z,100863
2018-05-31T21:28:24.350Z,100862
2018-05-31T21:30:52.527Z,100856
2018-05-31T21:33:20.673Z,100863
2018-05-31T21:35:48.833Z,100861
2018-05-31T21:38:17.479Z,100856
2018-05-31T21:40:46.381Z,100867
2018-05-31T21:43:15.267Z,100859
2018-05-31T21:45:43.455Z,100855
2018-05-31T21:48:11.635Z,100859
2018-05-31T21:50:39.772Z,100854
2018-05-31T21:53:08.688Z,100856
2018-05-31T21:55:36.888Z,100853
2018-05-31T21:58:05.100Z,100855
2018-05-31T22:00:39.626Z,100849
2018-05-31T22:03:08.524Z,100852
2018-05-31T22:05:37.439Z,100853
2018-05-31T22:08:05.691Z,100847
2018-05-31T22:10:33.834Z,100848
2018-05-31T22:13:02.091Z,100857
2018-05-31T22:15:30.369Z,100852
2018-05-31T22:17:58.621Z,100851
2018-05-31T22:20:26.802Z,100848
2018-05-31T22:22:55.066Z,100860
2018-05-31T22:25:23.226Z,100851
2018-05-31T22:27:51.448Z,100865
2018-05-31T22:30:19.638Z,100856
2018-05-31T22:32:47.855Z,100862
2018-05-31T22:35:16.791Z,100863
2018-05-31T22:37:44.974Z,100858
2018-05-31T22:40:13.210Z,100857
2018-05-31T22:42:41.394Z,100859
2018-05-31T22:45:09.559Z,100845
2018-05-31T22:47:37.732Z,100846
2018-05-31T22:50:05.914Z,100850
2018-05-31T22:52:34.182Z,100848
2018-05-31T22:55:02.353Z,100844
2018-05-31T22:57:30.689Z,100847
2018-05-31T22:59:58.906Z,100837
2018-05-31T23:02:27.064Z,100844
2018-05-31T23:04:55.270Z,100843
2018-05-31T23:07:23.444Z,100839
2018-05-31T23:09:51.706Z,100851
2018-05-31T23:12:19.977Z,100852
2018-05-31T23:14:48.150Z,100845
2018-05-31T23:17:16.397Z,100849
2018-05-31T23:19:44.621Z,100849
2018-05-31T23:22:12.770Z,100853
2018-05-31T23:24:40.931Z,100853
2018-05-31T23:27:09.162Z,100845
2018-05-31T23:29:38.094Z,100848
2018-05-31T23:32:06.255Z,100853
2018-05-31T23:34:34.430Z,100850
